Terminal Aerodrome Forecast
Issued by NWS

Home | Current Version | Previous Version | Text Only | Print | Product List | Glossary On
Versions: 1 2 3 4 5 6 7 8 9 10 11 12 13 14 15 16
000
FTUS44 KTSA 232320
TAFMLC
TAF
KMLC 232320Z 2400/2424 07006KT P6SM BKN035
     FM240600 10006KT P6SM OVC022
     FM241000 11006KT P6SM VCSH OVC013
     FM241300 13007KT 6SM -SHRA VCTS OVC008CB PROB30 2418/2424 2SM
      TSRA OVC003CB=

USA.gov is the U.S. government's official web portal to all federal, state and local government web resources and services.